Aviation Digital Data Service (ADDS)

Output produced by METARs form (0011 UTC 26 June 2017)
found at http://aviationweather.gov/adds/metars/
 
KILM 252322Z 2600/2624 21005KT P6SM -SHRA OVC040 
     TEMPO 2600/2603 3SM TSRA BKN025CB 
     FM260800 VRB03KT 3SM BR BKN008 
     FM261100 34004KT P6SM BKN035 
     FM261300 36005KT P6SM BKN050 
     FM262200 14004KT P6SM SCT200